Time;durP1;ratioP1;P1;durP2;ratioP2;P2;SDS_P1;SDS_P2;PMS_P1;PMS_P2;Temp;Humidity;BMP_temperature;BMP_pressure;BME280_temperature;BME280_humidity;BME280_pressure;Samples;Min_cycle;Max_cycle;Signal;HPM_P1;HPM_P2
2021/05/24 00:01:12;;;;;;;;;;;22.90;42.50;;;;;;1610946;73;812;-67
2021/05/24 00:03:14;;;;;;;;;;;22.90;42.40;;;;;;1613419;73;1153;-68
2021/05/24 00:05:18;;;;;;;;;;;22.90;42.50;;;;;;1627018;73;908;-68
2021/05/24 00:07:19;;;;;;;;;;;22.90;42.60;;;;;;1617778;73;1938;-67
2021/05/24 00:09:21;;;;;;;;;;;23.00;42.50;;;;;;1613638;73;1936;-67
2021/05/24 00:11:23;;;;;;;;;;;23.00;42.60;;;;;;1605070;73;799;-67
2021/05/24 00:13:25;;;;;;;;;;;22.90;42.60;;;;;;1596505;73;1134;-68
2021/05/24 00:15:28;;;;;;;;;;;23.00;42.60;;;;;;1584369;73;729;-68
2021/05/24 00:17:30;;;;;;;;;;;22.90;42.50;;;;;;1594190;73;764;-67
2021/05/24 00:19:32;;;;;;;;;;;23.00;42.40;;;;;;1604549;73;726;-67
2021/05/24 00:21:33;;;;;;;;;;;22.90;42.50;;;;;;1611201;73;711;-67
2021/05/24 00:23:35;;;;;;;;;;;22.90;42.40;;;;;;1597904;73;1133;-68
2021/05/24 00:25:38;;;;;;;;;;;22.90;42.50;;;;;;1589340;73;815;-67
2021/05/24 00:27:40;;;;;;;;;;;22.90;42.50;;;;;;1609268;73;674;-69
2021/05/24 00:29:42;;;;;;;;;;;22.90;42.30;;;;;;1610788;73;1903;-68
2021/05/24 00:31:43;;;;;;;;;;;23.00;42.30;;;;;;1606112;73;775;-68
2021/05/24 00:33:45;;;;;;;;;;;22.90;42.30;;;;;;1605468;73;1131;-68
2021/05/24 00:35:47;;;;;;;;;;;22.90;42.30;;;;;;1593996;73;787;-68
2021/05/24 00:37:49;;;;;;;;;;;22.90;42.10;;;;;;1599310;73;808;-68
2021/05/24 00:39:51;;;;;;;;;;;23.00;42.10;;;;;;1612283;73;785;-69
2021/05/24 00:41:53;;;;;;;;;;;22.90;42.00;;;;;;1600919;73;763;-67
2021/05/24 00:43:55;;;;;;;;;;;23.00;41.90;;;;;;1607973;73;1090;-68
2021/05/24 00:45:56;;;;;;;;;;;22.90;41.90;;;;;;1592764;73;706;-67
2021/05/24 00:47:58;;;;;;;;;;;22.90;42.00;;;;;;1608338;73;761;-68
2021/05/24 00:50:00;;;;;;;;;;;22.90;41.80;;;;;;1610212;73;1914;-68
2021/05/24 00:52:02;;;;;;;;;;;22.80;41.50;;;;;;1611933;73;734;-68
2021/05/24 00:54:04;;;;;;;;;;;22.80;41.60;;;;;;1607734;73;1098;-68
2021/05/24 00:56:06;;;;;;;;;;;22.90;41.70;;;;;;1612767;73;798;-68
2021/05/24 00:58:08;;;;;;;;;;;22.90;41.70;;;;;;1610279;73;762;-66
2021/05/24 01:00:12;;;;;;;;;;;22.90;41.70;;;;;;1604312;73;674;-68
2021/05/24 01:02:14;;;;;;;;;;;22.80;41.50;;;;;;1617151;73;692;-68
2021/05/24 01:04:17;;;;;;;;;;;22.90;41.50;;;;;;1590015;73;833;-68
2021/05/24 01:06:21;;;;;;;;;;;22.90;41.40;;;;;;1609679;73;805;-68
2021/05/24 01:08:23;;;;;;;;;;;22.90;41.30;;;;;;1592608;73;719;-68
2021/05/24 01:10:25;;;;;;;;;;;22.80;41.20;;;;;;1613665;73;1927;-68
2021/05/24 01:12:27;;;;;;;;;;;22.80;41.10;;;;;;1605708;73;1125;-67
2021/05/24 01:14:29;;;;;;;;;;;22.80;41.10;;;;;;1605056;73;699;-68
2021/05/24 01:16:31;;;;;;;;;;;22.80;41.20;;;;;;1610496;73;783;-68
2021/05/24 01:18:32;;;;;;;;;;;22.90;41.30;;;;;;1604884;73;787;-69
2021/05/24 01:20:35;;;;;;;;;;;22.90;41.40;;;;;;1603430;73;752;-68
2021/05/24 01:22:38;;;;;;;;;;;22.80;41.10;;;;;;1595048;73;1146;-67
2021/05/24 01:24:40;;;;;;;;;;;22.80;41.10;;;;;;1603288;73;770;-67
2021/05/24 01:26:43;;;;;;;;;;;22.80;41.20;;;;;;1608799;73;709;-67
2021/05/24 01:28:44;;;;;;;;;;;22.80;41.20;;;;;;1602872;73;672;-67
2021/05/24 01:30:46;;;;;;;;;;;22.80;41.10;;;;;;1603362;73;1918;-68
2021/05/24 01:32:48;;;;;;;;;;;22.80;41.20;;;;;;1610317;73;1217;-68
2021/05/24 01:34:50;;;;;;;;;;;22.80;41.20;;;;;;1611219;73;763;-67
2021/05/24 01:36:52;;;;;;;;;;;22.80;41.30;;;;;;1613741;73;778;-68
2021/05/24 01:38:54;;;;;;;;;;;22.90;41.30;;;;;;1613167;73;696;-68
2021/05/24 01:40:56;;;;;;;;;;;22.80;41.20;;;;;;1607547;73;716;-69
2021/05/24 01:42:58;;;;;;;;;;;22.80;41.30;;;;;;1615563;73;1141;-65
2021/05/24 01:45:00;;;;;;;;;;;22.80;41.40;;;;;;1607829;73;738;-70
2021/05/24 01:47:02;;;;;;;;;;;22.80;41.30;;;;;;1599875;73;800;-67
2021/05/24 01:49:04;;;;;;;;;;;22.90;41.30;;;;;;1613656;73;858;-67
2021/05/24 01:51:06;;;;;;;;;;;22.80;41.20;;;;;;1623891;73;1941;-67
2021/05/24 01:53:08;;;;;;;;;;;22.80;41.20;;;;;;1613497;73;1157;-67
2021/05/24 01:55:10;;;;;;;;;;;22.90;41.30;;;;;;1616696;73;672;-67
2021/05/24 01:57:12;;;;;;;;;;;22.90;41.20;;;;;;1602898;73;734;-68
2021/05/24 01:59:14;;;;;;;;;;;22.80;41.00;;;;;;1611304;73;817;-68
2021/05/24 02:01:16;;;;;;;;;;;22.80;41.00;;;;;;1604731;73;750;-66
2021/05/24 02:03:17;;;;;;;;;;;22.80;41.00;;;;;;1616837;73;1126;-67
2021/05/24 02:05:20;;;;;;;;;;;22.80;41.00;;;;;;1607169;73;792;-69
2021/05/24 02:07:22;;;;;;;;;;;22.80;41.00;;;;;;1619557;73;691;-68
2021/05/24 02:09:24;;;;;;;;;;;22.90;41.00;;;;;;1613110;73;821;-70
2021/05/24 02:11:26;;;;;;;;;;;22.80;40.90;;;;;;1611314;73;1933;-68
2021/05/24 02:13:28;;;;;;;;;;;22.80;40.90;;;;;;1619830;73;1109;-69
2021/05/24 02:15:31;;;;;;;;;;;22.80;40.80;;;;;;1613449;73;803;-68
2021/05/24 02:17:33;;;;;;;;;;;22.80;40.80;;;;;;1622958;73;857;-68
2021/05/24 02:19:36;;;;;;;;;;;22.80;40.90;;;;;;1598308;73;944;-67
2021/05/24 02:21:38;;;;;;;;;;;22.80;40.90;;;;;;1612976;73;712;-67
2021/05/24 02:23:40;;;;;;;;;;;22.80;40.90;;;;;;1620159;73;1099;-67
2021/05/24 02:25:42;;;;;;;;;;;22.80;40.80;;;;;;1614177;73;773;-67
2021/05/24 02:27:44;;;;;;;;;;;22.80;40.80;;;;;;1602069;73;722;-67
2021/05/24 02:29:46;;;;;;;;;;;22.70;40.80;;;;;;1603787;73;661;-67
2021/05/24 02:31:47;;;;;;;;;;;22.80;40.70;;;;;;1602900;73;1944;-65
2021/05/24 02:33:49;;;;;;;;;;;22.80;40.80;;;;;;1598337;70;2133;-75
2021/05/24 02:35:51;;;;;;;;;;;22.80;40.70;;;;;;1569510;74;788;-75
2021/05/24 02:37:53;;;;;;;;;;;22.70;40.60;;;;;;1575256;74;746;-75
2021/05/24 02:39:55;;;;;;;;;;;22.80;40.50;;;;;;1565771;74;702;-74
2021/05/24 02:41:57;;;;;;;;;;;22.80;40.60;;;;;;1566539;74;664;-74
2021/05/24 02:43:59;;;;;;;;;;;22.80;40.20;;;;;;1561815;75;1213;-74
2021/05/24 02:46:01;;;;;;;;;;;22.80;39.90;;;;;;1539855;75;776;-72
2021/05/24 02:48:03;;;;;;;;;;;22.80;40.20;;;;;;1553485;75;753;-74
2021/05/24 02:50:06;;;;;;;;;;;22.60;39.90;;;;;;1556257;76;654;-74
2021/05/24 02:52:08;;;;;;;;;;;22.70;40.10;;;;;;1553654;75;1942;-74
2021/05/24 02:54:10;;;;;;;;;;;22.80;40.40;;;;;;1552748;75;1160;-74
2021/05/24 02:56:11;;;;;;;;;;;22.80;40.30;;;;;;1555058;75;782;-74
2021/05/24 02:58:13;;;;;;;;;;;22.80;40.20;;;;;;1548024;75;741;-73
2021/05/24 03:00:15;;;;;;;;;;;22.80;40.50;;;;;;1550381;76;733;-70
2021/05/24 03:02:24;;;;;;;;;;;22.90;40.50;;;;;;1547024;75;795;-72
2021/05/24 03:04:26;;;;;;;;;;;22.90;40.70;;;;;;1541678;75;1614;-73
2021/05/24 03:06:24;;;;;;;;;;;22.80;40.70;;;;;;1555651;75;1711;-74
2021/05/24 03:08:26;;;;;;;;;;;22.90;40.90;;;;;;1549518;75;798;-75
2021/05/24 03:10:28;;;;;;;;;;;22.80;40.90;;;;;;1555064;76;1927;-74
2021/05/24 03:12:30;;;;;;;;;;;22.90;41.10;;;;;;1555686;75;722;-74
2021/05/24 03:14:32;;;;;;;;;;;22.80;40.90;;;;;;1537220;75;1125;-70
2021/05/24 03:16:34;;;;;;;;;;;22.80;40.70;;;;;;1551884;75;696;-71
2021/05/24 03:18:35;;;;;;;;;;;22.90;40.90;;;;;;1552247;75;814;-73
2021/05/24 03:20:37;;;;;;;;;;;22.90;40.80;;;;;;1542856;75;785;-73
2021/05/24 03:22:39;;;;;;;;;;;22.90;40.70;;;;;;1548491;75;1155;-73
2021/05/24 03:24:41;;;;;;;;;;;22.80;40.70;;;;;;1544056;75;746;-73
2021/05/24 03:26:43;;;;;;;;;;;22.80;40.60;;;;;;1577045;75;912;-73
2021/05/24 03:28:45;;;;;;;;;;;22.80;40.60;;;;;;1554999;75;795;-73
2021/05/24 03:30:47;;;;;;;;;;;22.80;40.40;;;;;;1552973;76;1928;-74
2021/05/24 03:32:49;;;;;;;;;;;22.90;40.60;;;;;;1552514;76;1141;-73
2021/05/24 03:34:51;;;;;;;;;;;22.80;40.30;;;;;;1552994;76;776;-74
2021/05/24 03:36:53;;;;;;;;;;;22.80;40.40;;;;;;1544995;76;783;-74
2021/05/24 03:38:54;;;;;;;;;;;22.90;40.70;;;;;;1550236;76;782;-74
2021/05/24 03:40:56;;;;;;;;;;;22.80;40.60;;;;;;1553200;76;842;-74
2021/05/24 03:42:58;;;;;;;;;;;22.90;40.80;;;;;;1545399;76;1183;-73
2021/05/24 03:45:01;;;;;;;;;;;22.80;40.70;;;;;;1553669;75;927;-73
2021/05/24 03:47:04;;;;;;;;;;;22.80;40.80;;;;;;1550431;76;773;-73
2021/05/24 03:49:06;;;;;;;;;;;22.80;40.80;;;;;;1550361;76;759;-75
2021/05/24 03:51:08;;;;;;;;;;;22.80;40.80;;;;;;1551432;75;1958;-74
2021/05/24 03:53:10;;;;;;;;;;;22.80;40.90;;;;;;1551927;75;1181;-73
2021/05/24 03:55:13;;;;;;;;;;;22.80;41.00;;;;;;1538392;76;749;-72
2021/05/24 03:57:15;;;;;;;;;;;22.80;40.80;;;;;;1548506;75;812;-73
2021/05/24 03:59:17;;;;;;;;;;;22.80;41.00;;;;;;1554272;75;788;-75
2021/05/24 04:01:19;;;;;;;;;;;22.80;40.80;;;;;;1551640;75;829;-75
2021/05/24 04:03:21;;;;;;;;;;;22.80;40.90;;;;;;1552881;75;1146;-75
2021/05/24 04:05:31;;;;;;;;;;;22.80;40.90;;;;;;1557608;75;978;-75
2021/05/24 04:07:30;;;;;;;;;;;22.80;40.90;;;;;;1556245;76;1604;-75
2021/05/24 04:09:33;;;;;;;;;;;22.70;40.90;;;;;;1561782;75;840;-76
2021/05/24 04:11:34;;;;;;;;;;;22.80;40.70;;;;;;1550931;75;1911;-75
2021/05/24 04:13:36;;;;;;;;;;;22.80;40.80;;;;;;1561167;75;1118;-75
2021/05/24 04:15:40;;;;;;;;;;;22.80;40.80;;;;;;1558667;75;717;-72
2021/05/24 04:17:43;;;;;;;;;;;22.70;40.70;;;;;;1550497;75;780;-73
2021/05/24 04:19:45;;;;;;;;;;;22.70;40.80;;;;;;1553517;75;764;-73
2021/05/24 04:21:46;;;;;;;;;;;22.80;40.70;;;;;;1553465;76;719;-69
2021/05/24 04:23:48;;;;;;;;;;;22.70;40.70;;;;;;1559489;75;1142;-70
2021/05/24 04:25:50;;;;;;;;;;;22.80;40.70;;;;;;1561386;75;726;-72
2021/05/24 04:27:52;;;;;;;;;;;22.70;40.70;;;;;;1555704;75;724;-73
2021/05/24 04:29:54;;;;;;;;;;;22.80;40.70;;;;;;1547700;76;779;-73
2021/05/24 04:31:56;;;;;;;;;;;22.70;40.70;;;;;;1546437;75;1937;-74
2021/05/24 04:33:58;;;;;;;;;;;22.80;40.50;;;;;;1555378;75;1165;-75
2021/05/24 04:36:00;;;;;;;;;;;22.80;40.60;;;;;;1551790;75;628;-74
2021/05/24 04:38:02;;;;;;;;;;;22.70;40.60;;;;;;1549396;76;769;-75
2021/05/24 04:40:04;;;;;;;;;;;22.80;40.50;;;;;;1554042;75;782;-75
2021/05/24 04:42:06;;;;;;;;;;;22.80;40.60;;;;;;1553168;75;802;-76
2021/05/24 04:44:18;;;;;;;;;;;22.70;40.60;;;;;;1547838;75;1178;-77
2021/05/24 04:46:14;;;;;;;;;;;22.70;40.50;;;;;;1551561;75;1770;-76
2021/05/24 04:48:16;;;;;;;;;;;22.70;40.50;;;;;;1548759;75;769;-73
2021/05/24 04:50:18;;;;;;;;;;;22.80;40.40;;;;;;1543230;76;716;-74
2021/05/24 04:52:20;;;;;;;;;;;22.70;40.20;;;;;;1557478;75;1930;-74
2021/05/24 04:54:22;;;;;;;;;;;22.60;39.70;;;;;;1537816;75;1136;-74
2021/05/24 04:56:24;;;;;;;;;;;22.60;39.50;;;;;;1552574;75;780;-74
2021/05/24 04:58:26;;;;;;;;;;;22.60;39.60;;;;;;1545153;75;718;-74
2021/05/24 05:00:28;;;;;;;;;;;22.50;39.50;;;;;;1558743;75;741;-74
2021/05/24 05:02:29;;;;;;;;;;;22.50;39.60;;;;;;1545743;76;826;-74
2021/05/24 05:04:31;;;;;;;;;;;22.60;39.70;;;;;;1550819;75;1023;-75
2021/05/24 05:06:33;;;;;;;;;;;22.60;39.90;;;;;;1545224;75;840;-76
2021/05/24 05:08:36;;;;;;;;;;;22.70;39.80;;;;;;1544536;75;736;-73
2021/05/24 05:10:37;;;;;;;;;;;22.70;40.00;;;;;;1550312;75;764;-73
2021/05/24 05:12:39;;;;;;;;;;;22.70;40.10;;;;;;1557215;75;1934;-74
2021/05/24 05:14:41;;;;;;;;;;;22.80;40.20;;;;;;1555781;75;833;-74
2021/05/24 05:16:43;;;;;;;;;;;22.80;40.50;;;;;;1542468;76;783;-74
2021/05/24 05:18:45;;;;;;;;;;;22.80;40.30;;;;;;1546952;75;795;-74
2021/05/24 05:20:47;;;;;;;;;;;22.80;40.10;;;;;;1549829;75;801;-73
2021/05/24 05:22:49;;;;;;;;;;;22.80;39.90;;;;;;1559392;75;1150;-72
2021/05/24 05:24:50;;;;;;;;;;;22.80;39.80;;;;;;1547416;76;607;-72
2021/05/24 05:26:52;;;;;;;;;;;22.80;39.90;;;;;;1551924;76;794;-71
2021/05/24 05:28:54;;;;;;;;;;;22.80;39.80;;;;;;1550662;76;781;-73
2021/05/24 05:30:56;;;;;;;;;;;22.80;40.00;;;;;;1557596;75;697;-71
2021/05/24 05:32:58;;;;;;;;;;;22.80;40.00;;;;;;1568896;74;1934;-72
2021/05/24 05:35:00;;;;;;;;;;;22.70;39.80;;;;;;1554553;75;813;-72
2021/05/24 05:37:02;;;;;;;;;;;22.80;39.80;;;;;;1550299;75;768;-72
2021/05/24 05:39:05;;;;;;;;;;;22.80;39.90;;;;;;1550684;75;947;-72
2021/05/24 05:41:07;;;;;;;;;;;22.80;40.00;;;;;;1552169;75;743;-72
2021/05/24 05:43:09;;;;;;;;;;;22.80;40.00;;;;;;1547230;75;1158;-72
2021/05/24 05:45:11;;;;;;;;;;;22.70;40.00;;;;;;1543602;76;744;-73
2021/05/24 05:47:13;;;;;;;;;;;22.80;40.00;;;;;;1555169;75;882;-73
2021/05/24 05:49:15;;;;;;;;;;;22.70;40.00;;;;;;1540142;75;683;-72
2021/05/24 05:51:17;;;;;;;;;;;22.80;40.00;;;;;;1545789;75;765;-74
2021/05/24 05:53:19;;;;;;;;;;;22.70;40.00;;;;;;1553413;76;1927;-71
2021/05/24 05:55:21;;;;;;;;;;;22.80;40.00;;;;;;1553710;76;791;-73
2021/05/24 05:57:22;;;;;;;;;;;22.70;39.80;;;;;;1551467;75;767;-73
2021/05/24 05:59:24;;;;;;;;;;;22.70;39.70;;;;;;1556024;75;735;-72
2021/05/24 06:01:26;;;;;;;;;;;22.70;39.70;;;;;;1550241;75;780;-73
2021/05/24 06:03:28;;;;;;;;;;;22.70;39.50;;;;;;1549318;76;1091;-73
2021/05/24 06:05:30;;;;;;;;;;;22.70;39.70;;;;;;1543810;75;662;-74
2021/05/24 06:07:32;;;;;;;;;;;22.70;39.80;;;;;;1556306;75;800;-74
2021/05/24 06:09:34;;;;;;;;;;;22.60;39.40;;;;;;1552157;75;818;-75
2021/05/24 06:11:36;;;;;;;;;;;22.70;39.50;;;;;;1554497;75;1942;-76
2021/05/24 06:13:38;;;;;;;;;;;22.70;39.50;;;;;;1554120;76;1142;-75
2021/05/24 06:15:39;;;;;;;;;;;22.60;39.40;;;;;;1551944;75;806;-76
2021/05/24 06:17:41;;;;;;;;;;;22.60;39.40;;;;;;1552887;75;771;-76
2021/05/24 06:19:43;;;;;;;;;;;22.60;39.60;;;;;;1550447;75;775;-74
2021/05/24 06:21:45;;;;;;;;;;;22.70;39.60;;;;;;1547745;75;734;-71
2021/05/24 06:23:47;;;;;;;;;;;22.60;39.70;;;;;;1539273;75;1127;-73
2021/05/24 06:25:49;;;;;;;;;;;22.70;39.90;;;;;;1538805;76;725;-73
2021/05/24 06:27:51;;;;;;;;;;;22.70;39.90;;;;;;1548130;75;727;-74
2021/05/24 06:29:52;;;;;;;;;;;22.70;39.90;;;;;;1551341;76;774;-71
2021/05/24 06:31:54;;;;;;;;;;;22.60;39.70;;;;;;1551554;75;1948;-73
2021/05/24 06:33:56;;;;;;;;;;;22.70;40.00;;;;;;1545492;75;1143;-73
2021/05/24 06:35:58;;;;;;;;;;;22.60;39.60;;;;;;1550296;75;793;-72
2021/05/24 06:38:00;;;;;;;;;;;22.60;39.70;;;;;;1554217;75;735;-72
2021/05/24 06:40:02;;;;;;;;;;;22.70;40.20;;;;;;1547178;76;709;-71
2021/05/24 06:42:05;;;;;;;;;;;22.70;40.20;;;;;;1545970;75;729;-71
2021/05/24 06:44:07;;;;;;;;;;;22.80;39.80;;;;;;1553112;75;1099;-71
2021/05/24 06:46:09;;;;;;;;;;;22.70;39.70;;;;;;1553721;75;783;-71
2021/05/24 06:48:11;;;;;;;;;;;22.80;39.60;;;;;;1546049;75;680;-73
2021/05/24 06:50:12;;;;;;;;;;;22.70;39.90;;;;;;1550191;76;709;-72
2021/05/24 06:52:14;;;;;;;;;;;22.60;40.00;;;;;;1548066;75;1960;-73
2021/05/24 06:54:16;;;;;;;;;;;22.50;40.10;;;;;;1546931;75;1139;-71
2021/05/24 06:56:18;;;;;;;;;;;22.60;40.00;;;;;;1546247;75;930;-71
2021/05/24 06:58:20;;;;;;;;;;;22.60;40.00;;;;;;1543623;75;740;-73
2021/05/24 07:00:22;;;;;;;;;;;22.70;40.00;;;;;;1545405;76;791;-73
2021/05/24 07:02:24;;;;;;;;;;;22.60;39.90;;;;;;1546647;76;819;-74
2021/05/24 07:04:26;;;;;;;;;;;22.70;40.00;;;;;;1549104;76;1131;-73
2021/05/24 07:06:28;;;;;;;;;;;22.60;40.00;;;;;;1547661;76;773;-73
2021/05/24 07:08:30;;;;;;;;;;;22.40;40.50;;;;;;1544592;76;794;-73
2021/05/24 07:10:32;;;;;;;;;;;22.40;40.90;;;;;;1546708;75;666;-71
2021/05/24 07:12:34;;;;;;;;;;;22.40;41.00;;;;;;1548613;75;1922;-76
2021/05/24 07:14:37;;;;;;;;;;;22.40;41.10;;;;;;1548820;76;1122;-71
2021/05/24 07:16:39;;;;;;;;;;;22.30;41.50;;;;;;1552797;75;739;-74
2021/05/24 07:18:40;;;;;;;;;;;22.20;41.60;;;;;;1547899;75;804;-78
2021/05/24 07:20:42;;;;;;;;;;;22.20;41.50;;;;;;1542552;75;718;-78
2021/05/24 07:22:44;;;;;;;;;;;22.40;41.20;;;;;;1543549;75;1170;-79
2021/05/24 07:24:46;;;;;;;;;;;22.20;41.20;;;;;;1540933;76;748;-76
2021/05/24 07:26:49;;;;;;;;;;;22.30;41.30;;;;;;1540010;76;753;-76
2021/05/24 07:28:51;;;;;;;;;;;22.40;41.00;;;;;;1551497;76;898;-77
2021/05/24 07:30:53;;;;;;;;;;;22.50;40.70;;;;;;1545255;75;735;-77
2021/05/24 07:32:56;;;;;;;;;;;22.50;40.70;;;;;;1543667;75;1941;-75
2021/05/24 07:34:58;;;;;;;;;;;22.60;40.40;;;;;;1549553;76;653;-69
2021/05/24 07:37:01;;;;;;;;;;;22.40;40.00;;;;;;1540372;76;822;-68
2021/05/24 07:39:03;;;;;;;;;;;22.30;39.50;;;;;;1543754;76;845;-69
2021/05/24 07:41:05;;;;;;;;;;;22.40;39.60;;;;;;1551300;75;781;-71
2021/05/24 07:43:07;;;;;;;;;;;22.30;39.20;;;;;;1561270;75;1211;-70
2021/05/24 07:45:09;;;;;;;;;;;22.30;38.70;;;;;;1556281;75;751;-71
2021/05/24 07:47:11;;;;;;;;;;;22.30;38.70;;;;;;1556186;75;668;-71
2021/05/24 07:49:17;;;;;;;;;;;22.30;38.60;;;;;;1546347;75;729;-69
2021/05/24 07:51:16;;;;;;;;;;;22.20;38.60;;;;;;1551169;76;1630;-69
2021/05/24 07:53:18;;;;;;;;;;;22.20;38.70;;;;;;1557116;75;1978;-69
2021/05/24 07:55:20;;;;;;;;;;;22.20;38.50;;;;;;1543577;75;679;-69
2021/05/24 07:57:22;;;;;;;;;;;22.20;38.20;;;;;;1551025;75;770;-69
2021/05/24 07:59:24;;;;;;;;;;;22.20;38.60;;;;;;1551846;75;815;-65
2021/05/24 08:01:25;;;;;;;;;;;22.20;38.50;;;;;;1556882;76;806;-69
2021/05/24 08:03:27;;;;;;;;;;;22.20;38.20;;;;;;1550298;75;1170;-69
2021/05/24 08:05:29;;;;;;;;;;;22.10;38.00;;;;;;1539213;75;709;-69
2021/05/24 08:07:31;;;;;;;;;;;22.10;37.90;;;;;;1559880;75;680;-69
2021/05/24 08:09:33;;;;;;;;;;;22.20;38.10;;;;;;1555621;75;810;-68
2021/05/24 08:11:35;;;;;;;;;;;22.20;38.10;;;;;;1548910;75;810;-69
2021/05/24 08:13:37;;;;;;;;;;;22.20;38.20;;;;;;1555285;75;1942;-70
2021/05/24 08:15:39;;;;;;;;;;;22.10;38.30;;;;;;1554426;76;773;-70
2021/05/24 08:17:41;;;;;;;;;;;22.10;38.40;;;;;;1546533;75;729;-70
2021/05/24 08:19:43;;;;;;;;;;;22.10;38.50;;;;;;1547480;75;797;-69
2021/05/24 08:21:45;;;;;;;;;;;22.10;38.50;;;;;;1552501;75;833;-71
2021/05/24 08:23:47;;;;;;;;;;;22.10;38.60;;;;;;1551817;76;1137;-70
2021/05/24 08:25:49;;;;;;;;;;;22.20;38.50;;;;;;1550315;75;751;-70
2021/05/24 08:27:51;;;;;;;;;;;22.20;38.60;;;;;;1546425;75;804;-70
2021/05/24 08:29:53;;;;;;;;;;;22.10;38.70;;;;;;1547994;75;778;-71
2021/05/24 08:31:55;;;;;;;;;;;22.10;38.80;;;;;;1554251;75;789;-68
2021/05/24 08:33:58;;;;;;;;;;;22.00;38.60;;;;;;1558188;71;215328;-66
2021/05/24 08:36:00;;;;;;;;;;;22.00;38.50;;;;;;1577516;74;771;-63
2021/05/24 08:38:02;;;;;;;;;;;22.00;39.20;;;;;;1583113;74;775;-65
2021/05/24 08:40:06;;;;;;;;;;;21.90;40.20;;;;;;1582856;74;762;-65
2021/05/24 08:42:07;;;;;;;;;;;21.90;40.70;;;;;;1572951;74;699;-66
2021/05/24 08:44:09;;;;;;;;;;;22.00;40.40;;;;;;1579765;74;1188;-65
2021/05/24 08:46:11;;;;;;;;;;;21.90;40.20;;;;;;1583877;74;733;-65
2021/05/24 08:48:13;;;;;;;;;;;21.90;40.00;;;;;;1591446;74;766;-66
2021/05/24 08:50:15;;;;;;;;;;;21.90;40.10;;;;;;1576555;74;780;-64
2021/05/24 08:52:17;;;;;;;;;;;22.00;40.00;;;;;;1581955;74;753;-66
2021/05/24 08:54:19;;;;;;;;;;;22.00;39.90;;;;;;1572497;74;1939;-65
2021/05/24 08:56:21;;;;;;;;;;;21.80;39.70;;;;;;1581565;74;801;-66
2021/05/24 08:58:23;;;;;;;;;;;21.90;39.70;;;;;;1564512;74;835;-65
2021/05/24 09:00:25;;;;;;;;;;;21.90;39.90;;;;;;1578177;74;781;-65
2021/05/24 09:02:27;;;;;;;;;;;21.90;40.20;;;;;;1555584;74;781;-65
2021/05/24 09:04:44;;;;;;;;;;;22.00;40.00;;;;;;1559546;74;1125;-68
2021/05/24 09:06:52;;;;;;;;;;;22.00;40.20;;;;;;1565783;74;811;-66
2021/05/24 09:08:50;;;;;;;;;;;22.00;40.70;;;;;;1560800;74;1645;-66
2021/05/24 09:10:51;;;;;;;;;;;22.00;40.80;;;;;;1561835;74;764;-66
2021/05/24 09:12:54;;;;;;;;;;;22.00;41.10;;;;;;1562619;74;1931;-66
2021/05/24 09:14:56;;;;;;;;;;;22.00;41.00;;;;;;1568067;74;1075;-66
2021/05/24 09:16:59;;;;;;;;;;;22.10;41.00;;;;;;1571972;74;761;-65
2021/05/24 09:19:14;;;;;;;;;;;22.10;41.10;;;;;;1571690;74;710;-66
2021/05/24 09:21:16;;;;;;;;;;;22.00;40.60;;;;;;1570027;74;764;-63
2021/05/24 09:23:18;;;;;;;;;;;22.00;40.00;;;;;;1579241;74;1214;-66
2021/05/24 09:25:20;;;;;;;;;;;21.90;39.80;;;;;;1571543;74;914;-66
2021/05/24 09:27:24;;;;;;;;;;;21.90;39.50;;;;;;1566226;74;773;-64
2021/05/24 09:29:26;;;;;;;;;;;21.90;39.50;;;;;;1569259;74;770;-66
2021/05/24 09:31:33;;;;;;;;;;;21.90;39.80;;;;;;1562559;74;790;-66
2021/05/24 09:33:31;;;;;;;;;;;21.90;39.70;;;;;;1558272;74;1939;-67
2021/05/24 09:35:33;;;;;;;;;;;21.80;39.10;;;;;;1570144;74;819;-65
2021/05/24 09:37:43;;;;;;;;;;;21.70;39.20;;;;;;1570466;74;765;-66
2021/05/24 09:39:42;;;;;;;;;;;21.70;38.90;;;;;;1563473;74;1642;-66
2021/05/24 09:41:45;;;;;;;;;;;21.50;39.60;;;;;;1564346;74;752;-67
2021/05/24 09:43:49;;;;;;;;;;;21.60;40.10;;;;;;1593402;73;1165;-66
2021/05/24 09:45:53;;;;;;;;;;;21.70;40.40;;;;;;1535917;75;1871;-66
2021/05/24 09:47:54;;;;;;;;;;;21.70;39.80;;;;;;1569329;74;938;-65
2021/05/24 09:49:56;;;;;;;;;;;21.80;39.50;;;;;;1567826;74;809;-65
2021/05/24 09:51:58;;;;;;;;;;;21.90;39.50;;;;;;1550581;75;1234;-63
2021/05/24 09:54:06;;;;;;;;;;;21.80;39.30;;;;;;1566569;74;1935;-65
2021/05/24 09:56:11;;;;;;;;;;;21.80;39.40;;;;;;1573722;74;763;-65
2021/05/24 09:58:12;;;;;;;;;;;21.80;39.40;;;;;;1566167;74;1886;-65
2021/05/24 10:00:17;;;;;;;;;;;21.80;39.60;;;;;;1561056;75;722;-65
2021/05/24 10:02:20;;;;;;;;;;;21.80;39.50;;;;;;1574061;74;1683;-65
2021/05/24 10:04:23;;;;;;;;;;;21.80;38.90;;;;;;1572986;74;1863;-66
2021/05/24 10:06:25;;;;;;;;;;;21.70;39.10;;;;;;1569690;74;1030;-65
2021/05/24 10:08:28;;;;;;;;;;;21.80;39.00;;;;;;1585511;74;748;-65
2021/05/24 10:10:29;;;;;;;;;;;21.70;38.80;;;;;;1570923;75;756;-62
2021/05/24 10:12:31;;;;;;;;;;;21.60;38.90;;;;;;1578549;74;821;-66
2021/05/24 10:14:33;;;;;;;;;;;21.60;38.90;;;;;;1576584;74;1939;-64
2021/05/24 10:16:37;;;;;;;;;;;21.60;38.90;;;;;;1568137;74;768;-64
2021/05/24 10:18:39;;;;;;;;;;;21.60;38.90;;;;;;1568083;74;779;-64
2021/05/24 10:20:40;;;;;;;;;;;21.60;38.50;;;;;;1577552;74;773;-64
2021/05/24 10:22:42;;;;;;;;;;;21.50;38.10;;;;;;1593363;74;849;-65
2021/05/24 10:24:44;;;;;;;;;;;21.50;38.50;;;;;;1569944;74;1128;-64
2021/05/24 10:26:46;;;;;;;;;;;21.60;38.60;;;;;;1562120;74;783;-63
2021/05/24 10:28:48;;;;;;;;;;;21.60;38.30;;;;;;1587332;74;779;-64
2021/05/24 10:30:50;;;;;;;;;;;21.50;37.90;;;;;;1576152;75;752;-67
2021/05/24 10:32:53;;;;;;;;;;;21.40;38.20;;;;;;1588102;74;734;-64
2021/05/24 10:34:55;;;;;;;;;;;21.40;38.10;;;;;;1571530;72;1933;-65
2021/05/24 10:37:10;;;;;;;;;;;21.30;37.80;;;;;;1572480;74;801;-64
2021/05/24 10:39:14;;;;;;;;;;;21.30;38.20;;;;;;1579809;74;835;-62
2021/05/24 10:41:16;;;;;;;;;;;21.40;38.40;;;;;;1565631;74;765;-62
2021/05/24 10:43:19;;;;;;;;;;;21.50;38.70;;;;;;1570465;74;1178;-62
2021/05/24 10:45:21;;;;;;;;;;;21.40;38.50;;;;;;1566862;74;724;-62
2021/05/24 10:47:24;;;;;;;;;;;21.30;38.80;;;;;;1564037;74;729;-60
2021/05/24 10:49:26;;;;;;;;;;;21.20;38.40;;;;;;1576776;74;968;-63
2021/05/24 10:51:46;;;;;;;;;;;21.20;38.40;;;;;;1592016;74;764;-63
2021/05/24 10:53:52;;;;;;;;;;;21.20;38.50;;;;;;1563050;74;1920;-63
2021/05/24 10:55:53;;;;;;;;;;;21.20;38.20;;;;;;1556669;74;1221;-62
2021/05/24 10:58:03;;;;;;;;;;;21.10;38.50;;;;;;1567841;74;680;-63
2021/05/24 11:00:06;;;;;;;;;;;21.10;38.60;;;;;;1576095;74;712;-64
2021/05/24 11:02:13;;;;;;;;;;;21.10;38.70;;;;;;1568436;74;1739;-62
2021/05/24 11:04:15;;;;;;;;;;;21.20;38.70;;;;;;1568961;74;1230;-62
2021/05/24 11:06:17;;;;;;;;;;;21.20;38.70;;;;;;1586034;74;739;-63
2021/05/24 11:08:21;;;;;;;;;;;21.40;38.80;;;;;;1567243;74;824;-64
2021/05/24 11:10:23;;;;;;;;;;;21.40;38.20;;;;;;1564389;74;1290;-62
2021/05/24 11:12:30;;;;;;;;;;;21.40;38.00;;;;;;1576946;74;748;-63
2021/05/24 11:14:32;;;;;;;;;;;21.30;38.30;;;;;;1565194;74;1921;-63
2021/05/24 11:16:34;;;;;;;;;;;21.30;38.40;;;;;;1557692;75;831;-64
2021/05/24 11:18:37;;;;;;;;;;;21.30;38.60;;;;;;1583495;74;736;-63
2021/05/24 11:20:42;;;;;;;;;;;21.30;38.50;;;;;;1552058;74;1111;-62
2021/05/24 11:22:46;;;;;;;;;;;21.20;38.50;;;;;;1566794;74;703;-63
2021/05/24 11:24:50;;;;;;;;;;;21.10;39.10;;;;;;1589357;74;1670;-63
2021/05/24 11:27:09;;;;;;;;;;;21.20;39.10;;;;;;1565044;74;1713;-61
2021/05/24 11:29:14;;;;;;;;;;;21.30;39.00;;;;;;1588341;74;789;-60
2021/05/24 11:31:16;;;;;;;;;;;21.30;38.90;;;;;;1559955;74;678;-62
2021/05/24 11:33:37;;;;;;;;;;;21.30;38.50;;;;;;1592754;72;1145;-63
2021/05/24 11:35:40;;;;;;;;;;;21.20;38.60;;;;;;1594374;74;868;-63
2021/05/24 11:37:43;;;;;;;;;;;21.20;39.10;;;;;;1575591;74;2024;-62
2021/05/24 11:39:52;;;;;;;;;;;21.20;39.20;;;;;;1567423;74;687;-64
2021/05/24 11:41:54;;;;;;;;;;;21.10;38.80;;;;;;1560890;74;772;-63
2021/05/24 11:43:56;;;;;;;;;;;20.90;39.30;;;;;;1564105;74;1169;-63
2021/05/24 11:46:02;;;;;;;;;;;20.80;39.50;;;;;;1588342;74;804;-63
2021/05/24 11:48:02;;;;;;;;;;;20.90;39.80;;;;;;1582423;74;1666;-63
2021/05/24 11:50:05;;;;;;;;;;;21.10;39.90;;;;;;1580222;74;790;-63
2021/05/24 11:52:09;;;;;;;;;;;21.10;39.70;;;;;;1576073;74;1648;-62
2021/05/24 11:54:12;;;;;;;;;;;21.20;39.50;;;;;;1570541;74;1929;-61
2021/05/24 11:56:14;;;;;;;;;;;21.30;39.50;;;;;;1571191;74;765;-62
2021/05/24 11:58:16;;;;;;;;;;;21.30;39.70;;;;;;1569531;74;818;-61
2021/05/24 12:00:23;;;;;;;;;;;21.20;39.60;;;;;;1575047;74;708;-64
2021/05/24 12:02:23;;;;;;;;;;;21.10;39.40;;;;;;1571513;74;1672;-63
2021/05/24 12:04:26;;;;;;;;;;;21.00;39.50;;;;;;1593030;74;1206;-62
2021/05/24 12:06:29;;;;;;;;;;;21.00;39.50;;;;;;1568707;75;761;-63
2021/05/24 12:08:31;;;;;;;;;;;21.10;39.60;;;;;;1560239;74;1170;-64
2021/05/24 12:10:35;;;;;;;;;;;21.10;39.50;;;;;;1585882;74;775;-63